Time;durP1;ratioP1;P1;durP2;ratioP2;P2;SDS_P1;SDS_P2;PMS_P1;PMS_P2;Temp;Humidity;BMP_temperature;BMP_pressure;BME280_temperature;BME280_humidity;BME280_pressure;Samples;Min_cycle;Max_cycle;Signal;HPM_P1;HPM_P2
2022/05/04 00:00:50;;;;;;;19.13;17.13;;;;;;;12.78;100.00;99310.13;4994337;28;20188;-76
2022/05/04 00:03:17;;;;;;;20.27;18.17;;;;;;;12.69;100.00;99312.50;4994455;28;20217;-76
2022/05/04 00:05:45;;;;;;;20.45;18.25;;;;;;;12.61;100.00;99308.63;4994772;28;20656;-78
2022/05/04 00:08:12;;;;;;;20.75;18.70;;;;;;;12.46;100.00;99307.91;4995299;28;20248;-78
2022/05/04 00:10:38;;;;;;;20.90;18.48;;;;;;;12.57;100.00;99305.28;4993992;28;20196;-75
2022/05/04 00:13:05;;;;;;;20.08;18.08;;;;;;;12.44;100.00;99308.00;4994453;28;20644;-77
2022/05/04 00:15:31;;;;;;;19.88;17.77;;;;;;;12.48;100.00;99303.22;4994287;28;20238;-77
2022/05/04 00:17:59;;;;;;;18.90;17.05;;;;;;;12.39;100.00;99301.19;4994001;28;20188;-77
2022/05/04 00:20:26;;;;;;;20.20;18.15;;;;;;;12.38;100.00;99302.16;4994367;28;20190;-77
2022/05/04 00:22:52;;;;;;;19.88;17.92;;;;;;;12.24;100.00;99300.44;4994311;28;20224;-76
2022/05/04 00:25:19;;;;;;;19.88;17.77;;;;;;;12.12;100.00;99301.25;4994498;28;20192;-77
2022/05/04 00:27:46;;;;;;;21.08;18.95;;;;;;;12.04;100.00;99308.06;4994456;28;20536;-77
2022/05/04 00:30:13;;;;;;;20.30;18.25;;;;;;;12.10;100.00;99304.94;4994493;28;20556;-78
2022/05/04 00:32:39;;;;;;;25.67;19.05;;;;;;;12.07;100.00;99304.28;4994060;28;20198;-76
2022/05/04 00:35:08;;;;;;;18.92;17.05;;;;;;;12.15;100.00;99303.78;4994013;28;20686;-78
2022/05/04 00:37:35;;;;;;;20.55;18.38;;;;;;;12.25;100.00;99304.84;4994049;28;20650;-75
2022/05/04 00:40:01;;;;;;;20.38;18.33;;;;;;;12.17;100.00;99305.38;4993542;28;20189;-77
2022/05/04 00:42:28;;;;;;;20.30;18.15;;;;;;;12.14;100.00;99302.88;4993263;28;20211;-77
2022/05/04 00:44:55;;;;;;;20.52;18.38;;;;;;;11.91;100.00;99304.47;4993990;28;20263;-77
2022/05/04 00:47:21;;;;;;;19.55;17.65;;;;;;;11.86;100.00;99303.91;4993290;28;20270;-76
2022/05/04 00:49:49;;;;;;;20.63;18.52;;;;;;;11.75;100.00;99314.56;4993901;28;20199;-76
2022/05/04 00:52:18;;;;;;;20.10;17.90;;;;;;;11.76;100.00;99309.06;4993895;28;20295;-77
2022/05/04 00:54:49;;;;;;;21.55;17.92;;;;;;;11.78;100.00;99309.81;4994133;28;20188;-76
2022/05/04 00:58:54;;;;;;;19.48;17.10;;;;;;;11.70;100.00;99312.16;4993780;28;20191;-77
2022/05/04 01:00:04;;;;;;;19.17;16.58;;;;;;;11.65;100.00;99311.63;4993666;28;20238;-77
2022/05/04 01:02:31;;;;;;;18.52;16.73;;;;;;;11.83;100.00;99310.38;4993477;28;20211;-77
2022/05/04 01:04:58;;;;;;;18.02;16.13;;;;;;;11.72;100.00;99312.06;4993804;28;20211;-77
2022/05/04 01:07:26;;;;;;;18.70;16.80;;;;;;;11.86;100.00;99312.84;4993394;28;20287;-77
2022/05/04 01:09:52;;;;;;;18.38;16.60;;;;;;;11.73;100.00;99311.94;4993506;28;20192;-76
2022/05/04 01:12:22;;;;;;;18.65;16.80;;;;;;;11.51;100.00;99312.53;4992091;28;20199;-76
2022/05/04 01:14:49;;;;;;;19.00;16.30;;;;;;;11.40;100.00;99315.94;4993141;28;20227;-76
2022/05/04 01:17:15;;;;;;;20.23;16.85;;;;;;;11.40;100.00;99313.25;4992702;28;20256;-76
2022/05/04 01:19:42;;;;;;;18.67;16.67;;;;;;;11.31;100.00;99311.16;4993148;28;20531;-75
2022/05/04 01:22:10;;;;;;;20.48;17.70;;;;;;;11.29;100.00;99306.84;4992981;28;20208;-78
2022/05/04 01:24:36;;;;;;;20.38;15.00;;;;;;;11.36;100.00;99314.41;4993357;28;20296;-76
2022/05/04 01:27:03;;;;;;;19.10;16.25;;;;;;;11.13;100.00;99317.75;4993061;28;20644;-78
2022/05/04 01:29:30;;;;;;;19.08;16.73;;;;;;;11.22;100.00;99311.75;4992870;28;20191;-77
2022/05/04 01:31:56;;;;;;;18.83;16.08;;;;;;;11.41;100.00;99316.81;4992581;28;20298;-75
2022/05/04 01:34:26;;;;;;;17.33;15.40;;;;;;;11.38;100.00;99317.88;4993319;28;20192;-76
2022/05/04 01:36:53;;;;;;;17.73;15.93;;;;;;;11.32;100.00;99323.66;4992778;28;20195;-77
2022/05/04 01:39:21;;;;;;;21.30;16.67;;;;;;;11.09;100.00;99319.78;4992282;28;20187;-76
2022/05/04 01:42:09;;;;;;;18.15;16.10;;;;;;;11.07;100.00;99325.25;4992201;28;20191;-76
2022/05/04 01:44:36;;;;;;;16.00;14.40;;;;;;;10.98;100.00;99319.59;4993320;28;20184;-76
2022/05/04 01:47:03;;;;;;;18.27;16.02;;;;;;;11.01;100.00;99317.59;4993276;28;20213;-76
2022/05/04 01:49:29;;;;;;;17.77;16.08;;;;;;;10.91;100.00;99315.56;4992679;28;20204;-77
2022/05/04 01:51:56;;;;;;;17.75;16.05;;;;;;;10.84;100.00;99320.47;4992664;28;20188;-77
2022/05/04 01:54:24;;;;;;;17.40;15.60;;;;;;;10.78;100.00;99328.94;4993061;28;20191;-77
2022/05/04 01:56:51;;;;;;;17.10;15.25;;;;;;;10.88;100.00;99324.72;4992951;28;20184;-76
2022/05/04 01:59:17;;;;;;;17.77;15.88;;;;;;;10.88;100.00;99330.09;4992567;28;20200;-75
2022/05/04 02:01:44;;;;;;;17.75;15.48;;;;;;;10.84;100.00;99324.03;4992763;28;20187;-77
2022/05/04 02:04:11;;;;;;;18.35;16.30;;;;;;;11.06;100.00;99322.69;4992824;28;20765;-77
2022/05/04 02:06:38;;;;;;;16.50;14.75;;;;;;;11.07;100.00;99330.63;4992530;28;20263;-77
2022/05/04 02:09:06;;;;;;;18.48;15.50;;;;;;;10.99;100.00;99315.94;4992557;28;20195;-77
2022/05/04 02:11:35;;;;;;;18.45;14.23;;;;;;;10.96;100.00;99322.38;4991806;28;20199;-77
2022/05/04 02:14:02;;;;;;;14.70;13.30;;;;;;;10.91;100.00;99323.66;4992077;28;20258;-78
2022/05/04 02:16:29;;;;;;;16.00;14.02;;;;;;;10.95;100.00;99317.13;4991654;28;20199;-77
2022/05/04 02:18:56;;;;;;;17.83;13.50;;;;;;;10.86;100.00;99326.63;4992615;28;20191;-77
2022/05/04 02:21:23;;;;;;;15.30;13.82;;;;;;;10.89;100.00;99314.81;4992227;28;20282;-78
2022/05/04 02:23:49;;;;;;;14.88;13.38;;;;;;;10.92;100.00;99315.50;4992072;28;20571;-76
2022/05/04 02:26:16;;;;;;;17.65;14.02;;;;;;;10.93;100.00;99332.50;4992047;28;20290;-77
2022/05/04 02:28:44;;;;;;;16.65;14.95;;;;;;;10.84;100.00;99323.19;4992759;28;20701;-78
2022/05/04 02:31:11;;;;;;;17.45;15.10;;;;;;;10.69;100.00;99319.63;4992193;28;20196;-77
2022/05/04 02:33:38;;;;;;;16.75;14.95;;;;;;;10.61;100.00;99320.09;4992057;28;20187;-77
2022/05/04 02:38:49;;;;;;;15.13;13.63;;;;;;;10.86;100.00;99315.88;4992122;28;20326;-75
2022/05/04 02:41:16;;;;;;;15.75;14.23;;;;;;;10.58;100.00;99319.41;4991791;28;20194;-78
2022/05/04 02:43:44;;;;;;;17.10;14.85;;;;;;;10.39;100.00;99317.03;4991743;28;20219;-77
2022/05/04 02:46:14;;;;;;;17.88;14.93;;;;;;;10.32;100.00;99313.84;4992707;28;20188;-76
2022/05/04 02:48:41;;;;;;;16.55;14.32;;;;;;;10.44;100.00;99323.84;4991450;28;20194;-76
2022/05/04 02:51:08;;;;;;;16.95;15.15;;;;;;;10.53;100.00;99324.25;4975239;28;20203;-75
2022/05/04 02:53:34;;;;;;;17.35;14.00;;;;;;;10.75;100.00;99326.47;4973068;28;20192;-77
2022/05/04 02:56:01;;;;;;;15.60;14.00;;;;;;;10.64;100.00;99321.75;4976196;28;20226;-76
2022/05/04 02:58:28;;;;;;;16.20;14.50;;;;;;;10.56;100.00;99314.16;4991767;28;20207;-77
2022/05/04 03:02:26;;;;;;;15.90;14.43;;;;;;;10.50;100.00;99319.91;4992476;28;20563;-76
2022/05/04 03:03:52;;;;;;;15.00;13.43;;;;;;;10.67;100.00;99316.16;4995845;28;20701;-77
2022/05/04 03:06:19;;;;;;;18.53;15.07;;;;;;;10.66;100.00;99317.13;4996023;28;20231;-77
2022/05/04 03:08:46;;;;;;;17.55;15.40;;;;;;;10.53;100.00;99316.16;4996269;28;20535;-77
2022/05/04 03:13:53;;;;;;;14.98;13.38;;;;;;;10.14;100.00;99315.81;4967461;28;20224;-77
2022/05/04 03:16:21;;;;;;;17.02;15.07;;;;;;;10.14;100.00;99306.88;4994656;28;20618;-78
2022/05/04 03:18:47;;;;;;;16.58;14.77;;;;;;;10.23;100.00;99304.47;4995422;28;20203;-75
2022/05/04 03:21:14;;;;;;;16.80;14.95;;;;;;;10.37;100.00;99306.34;4995181;28;20561;-77
2022/05/04 03:23:40;;;;;;;15.38;13.50;;;;;;;10.48;100.00;99315.59;4995182;28;20207;-76
2022/05/04 03:26:08;;;;;;;16.55;14.75;;;;;;;10.24;100.00;99324.16;4995589;28;20202;-77
2022/05/04 03:28:35;;;;;;;14.50;12.80;;;;;;;10.23;100.00;99322.44;4995330;28;20648;-76
2022/05/04 03:31:02;;;;;;;15.65;14.05;;;;;;;10.40;100.00;99321.44;4995183;28;20194;-76
2022/05/04 03:33:29;;;;;;;15.38;13.75;;;;;;;10.43;100.00;99314.03;4995271;28;20195;-75
2022/05/04 03:35:56;;;;;;;17.85;13.93;;;;;;;10.46;100.00;99318.38;4994833;28;20195;-78
2022/05/04 03:38:23;;;;;;;17.27;13.70;;;;;;;10.47;100.00;99309.34;4995310;28;20187;-78
2022/05/04 03:40:49;;;;;;;15.98;14.35;;;;;;;10.42;100.00;99311.44;4994799;28;20206;-77
2022/05/04 03:43:16;;;;;;;18.73;15.02;;;;;;;10.40;100.00;99313.34;4986063;28;20227;-77
2022/05/04 03:45:42;;;;;;;21.50;14.38;;;;;;;10.20;100.00;99310.06;4978172;28;20953;-76
2022/05/04 03:48:09;;;;;;;14.73;12.85;;;;;;;10.20;100.00;99304.66;4994506;28;20951;-78
2022/05/04 03:50:37;;;;;;;17.08;13.52;;;;;;;10.06;100.00;99299.25;4994033;28;20199;-75
2022/05/04 03:53:03;;;;;;;16.80;14.13;;;;;;;9.97;100.00;99299.81;4995171;28;20198;-76
2022/05/04 03:55:30;;;;;;;18.27;14.10;;;;;;;9.94;100.00;99298.16;4995139;28;20188;-76
2022/05/04 03:57:57;;;;;;;16.38;14.52;;;;;;;10.02;100.00;99300.41;4990653;28;20203;-76
2022/05/04 04:00:23;;;;;;;15.60;13.90;;;;;;;10.14;100.00;99301.50;4993070;28;20195;-77
2022/05/04 04:02:50;;;;;;;16.23;14.55;;;;;;;10.21;100.00;99300.16;4994651;28;20195;-76
2022/05/04 04:05:17;;;;;;;15.02;13.30;;;;;;;10.17;100.00;99299.47;4994632;28;20208;-76
2022/05/04 04:07:45;;;;;;;17.30;14.00;;;;;;;10.04;100.00;99298.50;4994461;28;20586;-76
2022/05/04 04:10:12;;;;;;;15.85;13.35;;;;;;;10.08;100.00;99305.41;4994351;28;20198;-78
2022/05/04 04:12:38;;;;;;;14.23;12.73;;;;;;;10.28;100.00;99311.41;4993818;28;20217;-77
2022/05/04 04:15:06;;;;;;;15.85;14.15;;;;;;;10.41;100.00;99309.72;4994465;28;20572;-77
2022/05/04 04:17:32;;;;;;;15.95;14.25;;;;;;;10.60;100.00;99302.22;4994630;28;20191;-78
2022/05/04 04:22:39;;;;;;;15.38;13.30;;;;;;;10.51;100.00;99304.63;4993403;28;20187;-77
2022/05/04 04:25:10;;;;;;;15.00;13.50;;;;;;;10.27;100.00;99307.00;4993883;28;20190;-76
2022/05/04 04:27:36;;;;;;;17.55;13.57;;;;;;;10.27;100.00;99309.69;4994066;28;20199;-75
2022/05/04 04:30:04;;;;;;;17.50;14.50;;;;;;;10.13;100.00;99314.09;4994191;28;20195;-77
2022/05/04 04:32:30;;;;;;;21.80;13.63;;;;;;;10.18;100.00;99311.97;4994297;28;20203;-78
2022/05/04 04:34:57;;;;;;;16.75;14.82;;;;;;;10.05;100.00;99319.06;4993823;28;20287;-76
2022/05/04 04:37:23;;;;;;;16.40;13.23;;;;;;;9.93;100.00;99319.81;4994071;28;20218;-78
2022/05/04 04:39:50;;;;;;;17.15;14.73;;;;;;;10.00;100.00;99322.03;4993792;28;20625;-76
2022/05/04 04:42:18;;;;;;;17.48;13.18;;;;;;;10.17;100.00;99322.81;4993326;28;20233;-75
2022/05/04 04:44:45;;;;;;;14.70;12.98;;;;;;;10.04;100.00;99317.34;4994107;28;20211;-75
2022/05/04 04:47:11;;;;;;;15.93;14.02;;;;;;;9.84;100.00;99310.47;4993785;28;20191;-77
2022/05/04 04:49:38;;;;;;;16.30;13.98;;;;;;;10.02;100.00;99313.88;4994014;28;20200;-77
2022/05/04 04:52:05;;;;;;;15.73;13.50;;;;;;;9.80;100.00;99315.13;4993867;28;20198;-76
2022/05/04 04:54:31;;;;;;;16.88;13.63;;;;;;;9.76;100.00;99320.78;4993265;28;20199;-77
2022/05/04 04:56:58;;;;;;;21.10;15.10;;;;;;;9.84;100.00;99318.53;4992886;28;20193;-76
2022/05/04 04:59:26;;;;;;;16.20;14.48;;;;;;;9.94;100.00;99324.22;4991869;28;20209;-77
2022/05/04 05:01:52;;;;;;;16.23;14.43;;;;;;;9.95;100.00;99317.84;4993931;28;20198;-76
2022/05/04 05:04:19;;;;;;;16.23;13.32;;;;;;;9.99;100.00;99320.31;4976237;28;20577;-77
2022/05/04 05:06:45;;;;;;;19.27;15.25;;;;;;;9.92;100.00;99323.44;4974348;28;20555;-78
2022/05/04 05:09:12;;;;;;;16.23;14.52;;;;;;;10.01;100.00;99317.50;4974333;28;20200;-77
2022/05/04 05:11:39;;;;;;;18.85;13.88;;;;;;;10.05;100.00;99323.56;4990140;28;20196;-77
2022/05/04 05:16:50;;;;;;;17.17;14.43;;;;;;;10.22;100.00;99320.69;4973901;28;20247;-77
2022/05/04 05:19:17;;;;;;;16.40;14.57;;;;;;;10.24;100.00;99316.09;4973860;28;20195;-77
2022/05/04 05:21:43;;;;;;;17.90;15.50;;;;;;;10.19;100.00;99326.28;4973780;28;20634;-76
2022/05/04 05:24:10;;;;;;;16.02;14.10;;;;;;;10.33;100.00;99323.63;4973401;28;20690;-76
2022/05/04 05:26:37;;;;;;;15.02;13.30;;;;;;;10.57;100.00;99329.34;4992142;28;20199;-76
2022/05/04 05:29:03;;;;;;;15.98;13.18;;;;;;;10.88;100.00;99332.81;4992985;28;20290;-76
2022/05/04 05:31:30;;;;;;;15.00;13.50;;;;;;;10.99;100.00;99327.59;4992546;28;20188;-77
2022/05/04 05:33:58;;;;;;;19.77;13.63;;;;;;;11.00;100.00;99334.69;4992245;28;20184;-77
2022/05/04 05:36:24;;;;;;;17.52;14.73;;;;;;;10.83;100.00;99338.47;4992937;28;20594;-77
2022/05/04 05:38:51;;;;;;;17.60;14.57;;;;;;;10.93;100.00;99338.75;4984811;28;20196;-78
2022/05/04 05:41:17;;;;;;;17.52;15.35;;;;;;;11.19;100.00;99336.19;4990532;28;20195;-78
2022/05/04 05:43:44;;;;;;;18.42;14.50;;;;;;;11.31;100.00;99335.41;4992383;28;20325;-77
2022/05/04 05:46:10;;;;;;;18.83;15.35;;;;;;;11.55;100.00;99335.63;4984526;28;20184;-77
2022/05/04 05:48:37;;;;;;;20.27;15.75;;;;;;;11.63;100.00;99327.88;4973535;28;20188;-77
2022/05/04 05:51:06;;;;;;;17.63;15.48;;;;;;;11.88;100.00;99343.31;4973692;28;20212;-76
2022/05/04 05:53:33;;;;;;;15.55;13.90;;;;;;;11.75;100.00;99333.44;4980227;28;20270;-78
2022/05/04 05:55:59;;;;;;;16.35;14.27;;;;;;;11.76;100.00;99333.34;4992341;28;20552;-76
2022/05/04 05:58:26;;;;;;;17.17;15.20;;;;;;;11.74;100.00;99340.66;4992558;28;20196;-77
2022/05/04 06:00:53;;;;;;;19.83;15.32;;;;;;;12.23;100.00;99331.06;4987565;28;20637;-77
2022/05/04 06:03:19;;;;;;;16.08;13.95;;;;;;;12.58;100.00;99339.44;4992649;28;20300;-77
2022/05/04 06:05:46;;;;;;;17.38;14.70;;;;;;;12.69;100.00;99331.44;4993139;28;20192;-77
2022/05/04 06:08:14;;;;;;;19.88;13.73;;;;;;;12.84;100.00;99334.00;4975936;28;20210;-78
2022/05/04 06:10:41;;;;;;;15.57;13.73;;;;;;;13.01;98.95;99330.94;4992317;28;20184;-77
2022/05/04 06:13:08;;;;;;;18.20;14.77;;;;;;;13.03;98.11;99330.84;4991176;28;20188;-78
2022/05/04 06:15:34;;;;;;;20.13;16.15;;;;;;;13.25;96.80;99330.13;4992057;28;20199;-78
2022/05/04 06:18:02;;;;;;;19.42;15.75;;;;;;;12.89;99.94;99343.50;4992018;28;20204;-77
2022/05/04 06:20:29;;;;;;;20.88;15.93;;;;;;;12.89;100.00;99348.06;4992191;28;20692;-77
2022/05/04 06:22:56;;;;;;;18.02;14.50;;;;;;;12.91;100.00;99337.97;4992389;28;20677;-76
2022/05/04 06:25:24;;;;;;;20.95;15.55;;;;;;;13.20;99.57;99335.00;4992305;28;20566;-77
2022/05/04 06:27:51;;;;;;;19.45;15.32;;;;;;;13.30;96.61;99336.13;4992296;28;20648;-78
2022/05/04 06:35:45;;;;;;;20.90;14.80;;;;;;;13.74;89.02;99345.44;4996233;28;20541;-76
2022/05/04 06:38:12;;;;;;;18.80;15.90;;;;;;;14.12;87.54;99338.97;4992651;28;20220;-76
2022/05/04 06:40:40;;;;;;;19.85;13.73;;;;;;;14.39;85.33;99344.09;4996161;28;20193;-76
2022/05/04 06:43:06;;;;;;;18.48;13.70;;;;;;;14.48;83.85;99346.06;4996372;28;20530;-75
2022/05/04 06:45:33;;;;;;;19.95;13.88;;;;;;;14.45;83.18;99348.16;4977393;28;20227;-76
2022/05/04 06:48:02;;;;;;;23.92;14.48;;;;;;;14.43;83.65;99350.16;4976634;28;20287;-77
2022/05/04 06:50:29;;;;;;;15.63;13.98;;;;;;;14.44;82.74;99349.16;4976668;28;20709;-77
2022/05/04 06:52:55;;;;;;;16.90;13.85;;;;;;;14.63;81.91;99349.47;4976843;28;20542;-77
2022/05/04 06:55:22;;;;;;;17.67;13.45;;;;;;;14.58;80.94;99347.13;4976740;28;20202;-76
2022/05/04 06:57:50;;;;;;;14.95;13.32;;;;;;;14.96;78.19;99353.19;4995885;28;20191;-77
2022/05/04 07:00:17;;;;;;;16.73;13.48;;;;;;;15.19;76.32;99357.59;4995903;28;20641;-78
2022/05/04 07:02:44;;;;;;;16.48;13.38;;;;;;;15.07;77.05;99355.88;4996062;28;20219;-75
2022/05/04 07:05:10;;;;;;;15.88;13.25;;;;;;;14.77;77.88;99357.38;4995475;28;20210;-78
2022/05/04 07:07:37;;;;;;;15.18;13.57;;;;;;;14.95;78.30;99354.19;4995739;28;20203;-75
2022/05/04 07:10:04;;;;;;;14.48;12.23;;;;;;;15.00;77.50;99350.09;4996004;28;20590;-76
2022/05/04 07:12:30;;;;;;;17.23;13.45;;;;;;;14.89;78.20;99355.50;4995450;28;20180;-78
2022/05/04 07:14:58;;;;;;;16.85;11.80;;;;;;;15.20;77.03;99361.19;4995386;28;20235;-77
2022/05/04 07:17:25;;;;;;;17.80;13.95;;;;;;;15.22;77.94;99365.50;4995407;28;20249;-77
2022/05/04 07:19:52;;;;;;;17.20;13.00;;;;;;;15.42;76.58;99358.47;4995422;28;20188;-77
2022/05/04 07:22:19;;;;;;;14.70;12.30;;;;;;;15.74;74.82;99354.09;4995804;28;20567;-76
2022/05/04 07:24:46;;;;;;;17.88;15.50;;;;;;;16.13;72.15;99355.28;4994760;28;20322;-78
2022/05/04 07:27:12;;;;;;;15.20;12.60;;;;;;;15.92;73.67;99355.28;4995673;28;20202;-77
2022/05/04 07:29:39;;;;;;;18.77;13.32;;;;;;;16.03;74.13;99373.34;4995000;28;20206;-77
2022/05/04 07:32:07;;;;;;;18.70;13.30;;;;;;;15.92;74.85;99368.84;4994279;28;20203;-77
2022/05/04 07:34:35;;;;;;;18.08;12.95;;;;;;;16.16;73.10;99375.91;4975211;28;20188;-77
2022/05/04 07:37:01;;;;;;;15.13;13.30;;;;;;;16.14;73.31;99367.00;4975834;28;20195;-77
2022/05/04 07:42:25;;;;;;;14.57;12.40;;;;;;;16.50;71.29;99365.72;4975712;28;20280;-77
2022/05/04 07:44:57;;;;;;;13.77;12.38;;;;;;;16.50;70.49;99368.44;4975265;28;20211;-76
2022/05/04 07:47:25;;;;;;;13.73;12.32;;;;;;;16.28;71.97;99372.16;4974056;28;20201;-75
2022/05/04 07:49:52;;;;;;;25.05;18.77;;;;;;;16.67;70.33;99372.41;4975082;28;20180;-75
2022/05/04 07:52:18;;;;;;;14.95;12.52;;;;;;;17.11;67.13;99361.38;4975204;28;20536;-75
2022/05/04 07:54:45;;;;;;;14.60;12.20;;;;;;;17.34;65.93;99367.47;4975463;28;20290;-77
2022/05/04 07:57:12;;;;;;;17.00;12.05;;;;;;;17.48;64.41;99370.69;4983709;28;20195;-77
2022/05/04 07:59:38;;;;;;;14.15;12.57;;;;;;;17.56;64.33;99367.25;4996488;28;20217;-75
2022/05/04 08:04:51;;;;;;;13.10;11.70;;;;;;;17.84;62.49;99365.63;4993829;28;20297;-77
2022/05/04 08:07:19;;;;;;;13.05;11.85;;;;;;;17.70;62.68;99368.72;4993806;28;20547;-78
2022/05/04 08:09:45;;;;;;;12.70;11.02;;;;;;;17.49;63.54;99363.38;4993369;28;20293;-76
2022/05/04 08:12:13;;;;;;;19.20;11.90;;;;;;;17.23;65.00;99365.69;4992539;28;20203;-75
2022/05/04 08:14:40;;;;;;;12.52;11.10;;;;;;;17.61;63.42;99359.50;4992952;28;20231;-76
2022/05/04 08:17:07;;;;;;;13.38;11.98;;;;;;;17.89;62.16;99366.06;4993790;28;20206;-74
2022/05/04 08:19:34;;;;;;;12.50;11.20;;;;;;;18.07;60.77;99365.38;4993847;28;20192;-76
2022/05/04 08:22:02;;;;;;;14.13;11.10;;;;;;;18.07;60.28;99358.03;4993676;28;20201;-77
2022/05/04 08:24:29;;;;;;;13.98;12.00;;;;;;;17.88;61.52;99363.47;4993321;28;20216;-75
2022/05/04 08:26:55;;;;;;;12.20;11.07;;;;;;;18.43;59.55;99366.50;4991302;28;20206;-76
2022/05/04 08:29:22;;;;;;;12.88;11.52;;;;;;;18.69;58.20;99365.88;4993302;28;20216;-76
2022/05/04 08:31:49;;;;;;;12.07;10.77;;;;;;;18.89;56.88;99361.28;4993561;28;20223;-76
2022/05/04 08:34:15;;;;;;;14.18;12.65;;;;;;;19.09;56.27;99367.53;4992890;28;20279;-76
2022/05/04 08:36:42;;;;;;;16.33;12.25;;;;;;;19.26;55.23;99357.66;4993540;28;20660;-75
2022/05/04 08:39:10;;;;;;;14.38;12.13;;;;;;;19.22;55.42;99356.25;4993635;28;20201;-76
2022/05/04 08:41:40;;;;;;;13.98;11.10;;;;;;;19.41;55.03;99350.72;4993471;28;20193;-77
2022/05/04 08:44:08;;;;;;;13.90;12.10;;;;;;;19.53;54.33;99354.09;4992999;28;20205;-77
2022/05/04 08:46:38;;;;;;;17.70;12.20;;;;;;;19.83;53.11;99350.22;4978317;28;20226;-76
2022/05/04 08:49:06;;;;;;;13.65;11.77;;;;;;;20.01;52.78;99347.47;4988111;28;20198;-75
2022/05/04 08:51:35;;;;;;;13.70;12.40;;;;;;;20.15;51.82;99348.81;4987530;28;20210;-77
2022/05/04 08:54:02;;;;;;;13.02;11.73;;;;;;;20.30;50.38;99355.41;4976117;28;20210;-76
2022/05/04 08:56:30;;;;;;;19.37;16.37;;;;;;;20.24;50.42;99355.19;4981238;28;20290;-74
2022/05/04 08:58:56;;;;;;;13.37;12.10;;;;;;;20.11;50.80;99353.72;4985495;28;20442;-78
2022/05/04 09:01:29;;;;;;;13.33;11.40;;;;;;;20.23;49.93;99348.00;4993625;28;20839;-78
2022/05/04 09:03:58;;;;;;;16.03;11.60;;;;;;;20.01;50.41;99355.66;4995724;28;20861;-74
2022/05/04 09:06:27;;;;;;;12.03;10.40;;;;;;;20.19;50.17;99351.06;4982692;28;20979;-75
2022/05/04 09:08:55;;;;;;;13.77;10.70;;;;;;;20.47;49.28;99345.50;4973772;28;20795;-75
2022/05/04 09:11:23;;;;;;;13.25;11.48;;;;;;;19.90;50.54;99355.88;4990299;28;20431;-75
2022/05/04 09:13:51;;;;;;;12.80;11.60;;;;;;;20.10;48.55;99343.81;4992365;28;20238;-76
2022/05/04 09:16:26;;;;;;;12.57;11.37;;;;;;;20.08;48.55;99345.84;4977878;28;20197;-76
2022/05/04 09:18:52;;;;;;;12.95;11.75;;;;;;;19.38;50.60;99346.41;4992655;28;20434;-75
2022/05/04 09:21:22;;;;;;;12.10;10.63;;;;;;;19.93;49.22;99337.31;4992469;28;20209;-75
2022/05/04 09:23:52;;;;;;;12.97;11.67;;;;;;;20.15;48.75;99346.09;4992728;28;20207;-75
2022/05/04 09:26:20;;;;;;;13.90;12.13;;;;;;;20.57;47.64;99346.28;4984532;28;20496;-75
2022/05/04 09:28:51;;;;;;;12.37;11.07;;;;;;;20.85;47.02;99346.13;4981879;28;20852;-76
2022/05/04 09:31:19;;;;;;;13.07;11.20;;;;;;;21.06;46.48;99348.47;4978060;28;20828;-76
2022/05/04 09:33:53;;;;;;;13.30;11.90;;;;;;;21.21;46.40;99343.22;4988164;28;20788;-75
2022/05/04 09:36:31;;;;;;;13.83;12.47;;;;;;;21.25;45.91;99341.91;4992318;28;20439;-76
2022/05/04 09:44:58;;;;;;;12.83;10.90;;;;;;;21.34;46.42;99329.94;4931696;29;20525;-74
2022/05/04 09:47:24;;;;;;;13.37;11.47;;;;;;;21.43;46.02;99331.72;4971270;28;20489;-76
2022/05/04 09:49:53;;;;;;;11.93;10.73;;;;;;;21.33;46.38;99328.25;4992011;28;20435;-76
2022/05/04 09:52:23;;;;;;;13.00;11.70;;;;;;;21.58;46.11;99325.63;4992202;28;20485;-76
2022/05/04 09:54:52;;;;;;;14.10;12.60;;;;;;;21.17;46.63;99330.91;4984952;28;20439;-76
2022/05/04 09:57:20;;;;;;;15.63;13.30;;;;;;;21.28;46.88;99325.16;4989601;28;20443;-75
2022/05/04 09:59:48;;;;;;;15.20;11.57;;;;;;;21.53;46.20;99323.41;4992174;28;20442;-77
2022/05/04 10:02:16;;;;;;;12.57;10.97;;;;;;;21.74;45.82;99325.69;4990074;28;20447;-75
2022/05/04 10:04:43;;;;;;;11.57;10.47;;;;;;;21.61;45.80;99322.56;4991960;28;20478;-76
2022/05/04 10:07:11;;;;;;;13.20;10.47;;;;;;;21.59;45.94;99317.22;4991955;28;20505;-75
2022/05/04 10:09:38;;;;;;;13.17;11.77;;;;;;;21.83;45.46;99308.22;4991463;28;20443;-76
2022/05/04 10:12:07;;;;;;;12.00;11.00;;;;;;;22.03;44.86;99310.66;4991909;28;20453;-76
2022/05/04 10:14:34;;;;;;;11.50;10.40;;;;;;;21.96;44.95;99304.16;4991171;28;20995;-75
2022/05/04 10:17:07;;;;;;;11.63;10.50;;;;;;;21.97;45.05;99303.09;4991903;28;20453;-75
2022/05/04 10:19:55;;;;;;;12.10;10.90;;;;;;;21.82;45.29;99301.03;4991820;28;20443;-75
2022/05/04 10:22:26;;;;;;;11.73;9.53;;;;;;;21.77;45.58;99297.91;4983155;28;20915;-77
2022/05/04 10:24:57;;;;;;;12.13;10.60;;;;;;;21.87;45.27;99292.31;4991227;28;20470;-74
2022/05/04 10:27:27;;;;;;;14.40;12.90;;;;;;;22.48;44.24;99301.94;4991227;28;20489;-77
2022/05/04 10:32:46;;;;;;;14.03;10.73;;;;;;;21.22;45.83;99291.06;4981104;28;20453;-76
2022/05/04 10:35:21;;;;;;;12.53;11.20;;;;;;;21.19;46.09;99288.66;4991128;28;20449;-77
2022/05/04 10:38:05;;;;;;;13.70;10.87;;;;;;;21.82;44.86;99287.34;4992024;28;20447;-75
2022/05/04 10:40:34;;;;;;;12.33;11.13;;;;;;;22.51;43.79;99280.69;4990483;28;20467;-77
2022/05/04 10:43:02;;;;;;;10.90;9.80;;;;;;;22.27;43.30;99282.41;4991773;28;20451;-77
2022/05/04 10:45:33;;;;;;;9.90;9.00;;;;;;;22.84;42.50;99282.31;4991089;28;20482;-76
2022/05/04 10:48:22;;;;;;;12.57;10.50;;;;;;;22.93;41.41;99285.03;4991383;28;20445;-76
2022/05/04 10:50:52;;;;;;;10.60;9.43;;;;;;;22.33;43.48;99280.88;4990402;28;20512;-76
2022/05/04 10:53:21;;;;;;;11.57;9.53;;;;;;;22.75;42.65;99282.50;4991739;28;20447;-77
2022/05/04 10:55:55;;;;;;;10.20;9.10;;;;;;;22.16;43.99;99271.75;4991292;28;20443;-76
2022/05/04 10:58:33;;;;;;;11.47;10.40;;;;;;;21.45;45.69;99271.31;4991695;28;20439;-76
2022/05/04 11:01:04;;;;;;;11.97;10.60;;;;;;;21.48;46.27;99267.38;4988834;28;20438;-76
2022/05/04 11:03:34;;;;;;;11.07;9.97;;;;;;;21.84;45.47;99260.63;4972961;28;20432;-76
2022/05/04 11:06:08;;;;;;;10.10;9.20;;;;;;;22.48;43.66;99269.03;4988908;28;20502;-77
2022/05/04 11:08:36;;;;;;;12.37;10.30;;;;;;;22.14;43.85;99258.22;4991886;28;20433;-75
2022/05/04 11:11:03;;;;;;;12.47;11.27;;;;;;;21.73;44.71;99255.47;4983719;28;20424;-75
2022/05/04 11:13:31;;;;;;;12.73;11.60;;;;;;;21.43;45.48;99255.03;4984206;28;20938;-76
2022/05/04 11:15:59;;;;;;;11.20;10.07;;;;;;;21.70;44.82;99253.06;4987956;28;20442;-76
2022/05/04 11:18:27;;;;;;;12.23;11.10;;;;;;;21.26;45.98;99257.91;4991122;28;20466;-75
2022/05/04 11:20:54;;;;;;;11.83;10.70;;;;;;;21.61;44.95;99248.59;4991303;28;20786;-75
2022/05/04 11:23:25;;;;;;;11.00;9.90;;;;;;;21.41;45.31;99251.66;4994183;28;20955;-76
2022/05/04 11:25:51;;;;;;;13.60;12.20;;;;;;;21.40;45.67;99249.03;4994483;28;20585;-76
2022/05/04 11:28:19;;;;;;;11.70;10.50;;;;;;;21.87;44.68;99253.94;4994505;28;20449;-77
2022/05/04 11:30:46;;;;;;;11.20;10.17;;;;;;;22.37;43.26;99249.34;4994529;28;20902;-76
2022/05/04 11:33:14;;;;;;;11.83;10.70;;;;;;;22.86;41.81;99249.19;4995019;28;20446;-75
2022/05/04 11:35:43;;;;;;;11.23;10.13;;;;;;;23.17;41.23;99237.44;4992167;28;20538;-76
2022/05/04 11:38:17;;;;;;;11.73;10.63;;;;;;;23.39;40.56;99233.88;4990950;28;20453;-76
2022/05/04 11:40:46;;;;;;;10.30;9.40;;;;;;;23.58;39.96;99234.47;4993959;28;20905;-77
2022/05/04 11:43:22;;;;;;;10.60;9.60;;;;;;;23.19;40.14;99238.13;4994088;28;20784;-76
2022/05/04 11:45:52;;;;;;;12.03;10.73;;;;;;;22.74;41.38;99242.38;4983557;28;20482;-76
2022/05/04 11:48:19;;;;;;;10.40;9.40;;;;;;;23.03;40.89;99231.66;4983526;28;20453;-75